sensor_id;sensor_type;location;lat;lon;timestamp;pressure;altitude;pressure_sealevel;temperature;humidity
76434;BME280;65265;53.200;6.080;2024-01-30T00:04:16;102531.94;;;5.39;100.00
76434;BME280;65265;53.200;6.080;2024-01-30T00:09:08;102543.59;;;5.37;100.00
76434;BME280;65265;53.200;6.080;2024-01-30T00:14:03;102539.41;;;5.38;100.00
76434;BME280;65265;53.200;6.080;2024-01-30T00:18:56;102500.72;;;5.30;100.00
76434;BME280;65265;53.200;6.080;2024-01-30T00:23:48;102514.94;;;5.38;100.00
76434;BME280;65265;53.200;6.080;2024-01-30T00:28:40;102515.06;;;5.40;100.00
76434;BME280;65265;53.200;6.080;2024-01-30T00:33:37;102512.94;;;5.44;100.00
76434;BME280;65265;53.200;6.080;2024-01-30T00:38:30;102510.00;;;5.40;100.00
76434;BME280;65265;53.200;6.080;2024-01-30T00:43:22;102506.94;;;5.34;100.00
76434;BME280;65265;53.200;6.080;2024-01-30T00:48:15;102506.41;;;5.28;100.00
76434;BME280;65265;53.200;6.080;2024-01-30T00:53:09;102519.13;;;5.38;100.00
76434;BME280;65265;53.200;6.080;2024-01-30T00:58:02;102512.28;;;5.37;100.00
76434;BME280;65265;53.200;6.080;2024-01-30T01:02:55;102511.38;;;5.36;100.00
76434;BME280;65265;53.200;6.080;2024-01-30T01:07:48;102497.53;;;5.23;100.00
76434;BME280;65265;53.200;6.080;2024-01-30T01:12:41;102499.91;;;5.21;100.00
76434;BME280;65265;53.200;6.080;2024-01-30T01:17:34;102504.78;;;5.38;100.00
76434;BME280;65265;53.200;6.080;2024-01-30T01:22:26;102484.78;;;5.41;100.00
76434;BME280;65265;53.200;6.080;2024-01-30T01:27:18;102499.25;;;5.52;100.00
76434;BME280;65265;53.200;6.080;2024-01-30T01:32:13;102501.94;;;5.64;100.00
76434;BME280;65265;53.200;6.080;2024-01-30T01:37:05;102491.00;;;5.83;100.00
76434;BME280;65265;53.200;6.080;2024-01-30T01:41:58;102487.56;;;6.03;100.00
76434;BME280;65265;53.200;6.080;2024-01-30T01:46:51;102484.38;;;6.05;100.00
76434;BME280;65265;53.200;6.080;2024-01-30T01:51:47;102474.50;;;6.08;100.00
76434;BME280;65265;53.200;6.080;2024-01-30T01:56:42;102467.38;;;6.04;100.00
76434;BME280;65265;53.200;6.080;2024-01-30T02:01:36;102472.56;;;6.06;100.00
76434;BME280;65265;53.200;6.080;2024-01-30T02:06:29;102474.50;;;5.98;100.00
76434;BME280;65265;53.200;6.080;2024-01-30T02:11:25;102465.72;;;6.05;100.00
76434;BME280;65265;53.200;6.080;2024-01-30T02:16:17;102470.53;;;6.22;100.00
76434;BME280;65265;53.200;6.080;2024-01-30T02:21:12;102455.56;;;6.25;100.00
76434;BME280;65265;53.200;6.080;2024-01-30T02:26:05;102439.66;;;6.27;100.00
76434;BME280;65265;53.200;6.080;2024-01-30T02:30:58;102424.94;;;6.33;100.00
76434;BME280;65265;53.200;6.080;2024-01-30T02:35:50;102441.94;;;6.34;100.00
76434;BME280;65265;53.200;6.080;2024-01-30T02:40:45;102439.38;;;6.54;100.00
76434;BME280;65265;53.200;6.080;2024-01-30T02:45:38;102439.59;;;6.67;100.00
76434;BME280;65265;53.200;6.080;2024-01-30T02:50:31;102439.59;;;6.67;100.00
76434;BME280;65265;53.200;6.080;2024-01-30T02:55:23;102426.13;;;6.58;100.00
76434;BME280;65265;53.200;6.080;2024-01-30T03:00:20;102424.25;;;6.56;100.00
76434;BME280;65265;53.200;6.080;2024-01-30T03:05:12;102425.91;;;6.55;100.00
76434;BME280;65265;53.200;6.080;2024-01-30T03:10:06;102410.00;;;6.58;100.00
76434;BME280;65265;53.200;6.080;2024-01-30T03:14:59;102398.94;;;6.57;100.00
76434;BME280;65265;53.200;6.080;2024-01-30T03:19:55;102382.28;;;6.61;100.00
76434;BME280;65265;53.200;6.080;2024-01-30T03:24:47;102391.44;;;6.59;100.00
76434;BME280;65265;53.200;6.080;2024-01-30T03:29:39;102376.09;;;6.47;100.00
76434;BME280;65265;53.200;6.080;2024-01-30T03:34:31;102393.66;;;6.44;100.00
76434;BME280;65265;53.200;6.080;2024-01-30T03:39:26;102405.72;;;6.47;100.00
76434;BME280;65265;53.200;6.080;2024-01-30T03:44:18;102380.69;;;6.51;100.00
76434;BME280;65265;53.200;6.080;2024-01-30T03:49:11;102364.19;;;6.36;100.00
76434;BME280;65265;53.200;6.080;2024-01-30T03:54:03;102360.38;;;6.41;100.00
76434;BME280;65265;53.200;6.080;2024-01-30T03:58:59;102352.75;;;6.41;100.00
76434;BME280;65265;53.200;6.080;2024-01-30T04:03:53;102359.25;;;6.38;100.00
76434;BME280;65265;53.200;6.080;2024-01-30T04:08:45;102372.28;;;6.52;100.00
76434;BME280;65265;53.200;6.080;2024-01-30T04:13:39;102366.28;;;6.62;100.00
76434;BME280;65265;53.200;6.080;2024-01-30T04:18:36;102344.44;;;6.54;100.00
76434;BME280;65265;53.200;6.080;2024-01-30T04:23:29;102346.94;;;6.64;100.00
76434;BME280;65265;53.200;6.080;2024-01-30T04:28:22;102347.94;;;6.66;100.00
76434;BME280;65265;53.200;6.080;2024-01-30T04:33:14;102333.47;;;6.65;100.00
76434;BME280;65265;53.200;6.080;2024-01-30T04:38:12;102334.31;;;6.75;100.00
76434;BME280;65265;53.200;6.080;2024-01-30T04:43:05;102345.72;;;6.80;100.00
76434;BME280;65265;53.200;6.080;2024-01-30T04:47:57;102329.69;;;6.81;100.00
76434;BME280;65265;53.200;6.080;2024-01-30T04:52:51;102333.78;;;6.79;100.00
76434;BME280;65265;53.200;6.080;2024-01-30T04:57:48;102336.09;;;6.97;100.00
76434;BME280;65265;53.200;6.080;2024-01-30T05:02:40;102316.94;;;6.91;100.00
76434;BME280;65265;53.200;6.080;2024-01-30T05:07:33;102319.63;;;7.04;100.00
76434;BME280;65265;53.200;6.080;2024-01-30T05:12:26;102314.81;;;7.07;100.00
76434;BME280;65265;53.200;6.080;2024-01-30T05:17:21;102339.47;;;7.08;100.00
76434;BME280;65265;53.200;6.080;2024-01-30T05:22:15;102321.81;;;6.99;100.00
76434;BME280;65265;53.200;6.080;2024-01-30T05:27:10;102315.31;;;7.03;100.00
76434;BME280;65265;53.200;6.080;2024-01-30T05:32:04;102320.25;;;6.90;100.00
76434;BME280;65265;53.200;6.080;2024-01-30T05:36:59;102321.72;;;6.98;100.00
76434;BME280;65265;53.200;6.080;2024-01-30T05:41:51;102324.22;;;7.08;100.00
76434;BME280;65265;53.200;6.080;2024-01-30T05:46:45;102320.75;;;7.07;100.00
76434;BME280;65265;53.200;6.080;2024-01-30T05:51:37;102306.84;;;7.14;100.00
76434;BME280;65265;53.200;6.080;2024-01-30T05:56:32;102302.75;;;7.16;100.00
76434;BME280;65265;53.200;6.080;2024-01-30T06:01:25;102316.03;;;7.12;100.00
76434;BME280;65265;53.200;6.080;2024-01-30T06:06:16;102297.25;;;7.21;100.00
76434;BME280;65265;53.200;6.080;2024-01-30T06:11:10;102298.56;;;7.16;100.00
76434;BME280;65265;53.200;6.080;2024-01-30T06:16:04;102303.38;;;7.23;100.00
76434;BME280;65265;53.200;6.080;2024-01-30T06:20:57;102303.47;;;7.25;100.00
76434;BME280;65265;53.200;6.080;2024-01-30T06:25:49;102313.13;;;7.29;100.00
76434;BME280;65265;53.200;6.080;2024-01-30T06:30:42;102309.91;;;7.31;100.00
76434;BME280;65265;53.200;6.080;2024-01-30T06:35:39;102312.78;;;7.36;100.00
76434;BME280;65265;53.200;6.080;2024-01-30T06:40:31;102301.06;;;7.38;100.00
76434;BME280;65265;53.200;6.080;2024-01-30T06:45:23;102305.16;;;7.36;100.00
76434;BME280;65265;53.200;6.080;2024-01-30T06:50:15;102293.56;;;7.39;100.00
76434;BME280;65265;53.200;6.080;2024-01-30T06:55:11;102286.28;;;7.44;100.00
76434;BME280;65265;53.200;6.080;2024-01-30T07:00:07;102297.78;;;7.50;100.00
76434;BME280;65265;53.200;6.080;2024-01-30T07:04:59;102280.69;;;7.38;100.00
76434;BME280;65265;53.200;6.080;2024-01-30T07:09:51;102287.81;;;7.42;100.00
76434;BME280;65265;53.200;6.080;2024-01-30T07:14:50;102294.03;;;7.45;100.00
76434;BME280;65265;53.200;6.080;2024-01-30T07:19:42;102300.81;;;7.56;100.00
76434;BME280;65265;53.200;6.080;2024-01-30T07:24:35;102290.28;;;7.52;100.00
76434;BME280;65265;53.200;6.080;2024-01-30T07:29:26;102305.78;;;7.55;100.00
76434;BME280;65265;53.200;6.080;2024-01-30T07:34:22;102300.00;;;7.46;100.00
76434;BME280;65265;53.200;6.080;2024-01-30T07:39:15;102314.84;;;7.51;100.00
76434;BME280;65265;53.200;6.080;2024-01-30T07:44:08;102314.75;;;7.50;100.00
76434;BME280;65265;53.200;6.080;2024-01-30T07:49:00;102298.44;;;7.48;100.00
76434;BME280;65265;53.200;6.080;2024-01-30T07:53:53;102303.22;;;7.55;100.00
76434;BME280;65265;53.200;6.080;2024-01-30T07:58:49;102317.50;;;7.53;100.00
76434;BME280;65265;53.200;6.080;2024-01-30T08:03:41;102317.22;;;7.38;100.00
76434;BME280;65265;53.200;6.080;2024-01-30T08:08:33;102314.81;;;7.40;100.00
76434;BME280;65265;53.200;6.080;2024-01-30T08:13:28;102330.75;;;7.49;100.00
76434;BME280;65265;53.200;6.080;2024-01-30T08:18:20;102342.59;;;7.48;100.00
76434;BME280;65265;53.200;6.080;2024-01-30T08:23:12;102345.59;;;7.54;100.00
76434;BME280;65265;53.200;6.080;2024-01-30T08:28:05;102347.41;;;7.55;100.00
76434;BME280;65265;53.200;6.080;2024-01-30T08:32:59;102336.78;;;7.61;100.00
76434;BME280;65265;53.200;6.080;2024-01-30T08:37:52;102340.34;;;7.74;100.00
76434;BME280;65265;53.200;6.080;2024-01-30T08:42:44;102350.31;;;7.83;100.00
76434;BME280;65265;53.200;6.080;2024-01-30T08:47:37;102349.44;;;7.94;100.00
76434;BME280;65265;53.200;6.080;2024-01-30T08:52:32;102349.56;;;7.95;100.00
76434;BME280;65265;53.200;6.080;2024-01-30T08:57:25;102351.91;;;8.04;100.00
76434;BME280;65265;53.200;6.080;2024-01-30T09:02:19;102343.94;;;8.11;100.00
76434;BME280;65265;53.200;6.080;2024-01-30T09:07:11;102347.41;;;8.23;100.00
76434;BME280;65265;53.200;6.080;2024-01-30T09:12:07;102348.94;;;8.32;100.00
76434;BME280;65265;53.200;6.080;2024-01-30T09:17:00;102361.50;;;8.41;100.00
76434;BME280;65265;53.200;6.080;2024-01-30T09:21:53;102360.59;;;8.40;100.00
76434;BME280;65265;53.200;6.080;2024-01-30T09:26:46;102362.16;;;8.38;100.00
76434;BME280;65265;53.200;6.080;2024-01-30T09:31:42;102356.59;;;8.44;100.00
76434;BME280;65265;53.200;6.080;2024-01-30T09:36:35;102357.94;;;8.62;100.00
76434;BME280;65265;53.200;6.080;2024-01-30T09:41:27;102349.63;;;8.53;100.00
76434;BME280;65265;53.200;6.080;2024-01-30T09:46:21;102366.78;;;8.67;100.00
76434;BME280;65265;53.200;6.080;2024-01-30T09:51:19;102366.13;;;8.69;100.00
76434;BME280;65265;53.200;6.080;2024-01-30T09:56:13;102368.53;;;8.79;100.00
76434;BME280;65265;53.200;6.080;2024-01-30T10:01:07;102369.16;;;8.88;100.00
76434;BME280;65265;53.200;6.080;2024-01-30T10:06:02;102367.59;;;9.02;100.00
76434;BME280;65265;53.200;6.080;2024-01-30T10:10:57;102365.94;;;9.27;100.00
76434;BME280;65265;53.200;6.080;2024-01-30T10:15:50;102372.59;;;9.36;100.00
76434;BME280;65265;53.200;6.080;2024-01-30T10:20:43;102369.59;;;9.54;100.00
76434;BME280;65265;53.200;6.080;2024-01-30T10:25:36;102394.19;;;9.65;100.00
76434;BME280;65265;53.200;6.080;2024-01-30T10:30:30;102392.44;;;9.64;100.00
76434;BME280;65265;53.200;6.080;2024-01-30T10:35:23;102398.47;;;9.53;100.00
76434;BME280;65265;53.200;6.080;2024-01-30T10:40:15;102397.84;;;9.44;100.00
76434;BME280;65265;53.200;6.080;2024-01-30T10:45:08;102409.19;;;9.37;100.00
76434;BME280;65265;53.200;6.080;2024-01-30T10:50:07;102400.69;;;9.25;100.00
76434;BME280;65265;53.200;6.080;2024-01-30T10:55:01;102398.28;;;9.15;100.00
76434;BME280;65265;53.200;6.080;2024-01-30T10:59:58;102407.75;;;9.04;100.00
76434;BME280;65265;53.200;6.080;2024-01-30T11:04:56;102401.25;;;8.85;100.00
76434;BME280;65265;53.200;6.080;2024-01-30T11:09:52;102406.22;;;8.83;100.00
76434;BME280;65265;53.200;6.080;2024-01-30T11:14:45;102409.03;;;8.75;100.00
76434;BME280;65265;53.200;6.080;2024-01-30T11:19:38;102403.47;;;8.69;100.00
76434;BME280;65265;53.200;6.080;2024-01-30T11:24:30;102405.81;;;8.66;100.00
76434;BME280;65265;53.200;6.080;2024-01-30T11:29:30;102409.69;;;8.61;100.00
76434;BME280;65265;53.200;6.080;2024-01-30T11:34:24;102411.22;;;8.59;100.00
76434;BME280;65265;53.200;6.080;2024-01-30T11:39:17;102404.94;;;8.54;100.00
76434;BME280;65265;53.200;6.080;2024-01-30T11:44:12;102415.56;;;8.60;100.00
76434;BME280;65265;53.200;6.080;2024-01-30T11:49:05;102409.25;;;8.55;100.00
76434;BME280;65265;53.200;6.080;2024-01-30T11:53:57;102406.69;;;8.55;100.00
76434;BME280;65265;53.200;6.080;2024-01-30T11:58:49;102410.91;;;8.43;100.00
76434;BME280;65265;53.200;6.080;2024-01-30T12:03:42;102404.03;;;8.42;100.00
76434;BME280;65265;53.200;6.080;2024-01-30T12:08:35;102402.03;;;8.38;100.00
76434;BME280;65265;53.200;6.080;2024-01-30T12:13:27;102406.69;;;8.43;100.00
76434;BME280;65265;53.200;6.080;2024-01-30T12:18:19;102395.38;;;8.51;100.00
76434;BME280;65265;53.200;6.080;2024-01-30T12:23:12;102392.06;;;8.52;100.00
76434;BME280;65265;53.200;6.080;2024-01-30T12:28:05;102388.41;;;8.60;100.00
76434;BME280;65265;53.200;6.080;2024-01-30T12:32:57;102401.59;;;8.55;100.00
76434;BME280;65265;53.200;6.080;2024-01-30T12:37:49;102403.16;;;8.53;100.00
76434;BME280;65265;53.200;6.080;2024-01-30T12:42:41;102414.25;;;8.65;100.00
76434;BME280;65265;53.200;6.080;2024-01-30T12:47:35;102401.50;;;8.65;100.00
76434;BME280;65265;53.200;6.080;2024-01-30T12:52:28;102392.50;;;8.81;100.00
76434;BME280;65265;53.200;6.080;2024-01-30T12:57:20;102393.16;;;8.79;100.00
76434;BME280;65265;53.200;6.080;2024-01-30T13:02:12;102392.72;;;8.73;100.00
76434;BME280;65265;53.200;6.080;2024-01-30T13:07:05;102386.94;;;8.75;100.00
76434;BME280;65265;53.200;6.080;2024-01-30T13:11:57;102394.28;;;8.59;100.00
76434;BME280;65265;53.200;6.080;2024-01-30T13:16:50;102382.56;;;8.50;100.00
76434;BME280;65265;53.200;6.080;2024-01-30T13:21:43;102388.31;;;8.47;100.00
76434;BME280;65265;53.200;6.080;2024-01-30T13:26:37;102385.22;;;8.40;100.00
76434;BME280;65265;53.200;6.080;2024-01-30T13:31:30;102392.72;;;8.38;100.00
76434;BME280;65265;53.200;6.080;2024-01-30T13:36:22;102397.38;;;8.21;100.00
76434;BME280;65265;53.200;6.080;2024-01-30T13:41:14;102384.69;;;8.11;100.00
76434;BME280;65265;53.200;6.080;2024-01-30T13:46:08;102381.16;;;8.09;100.00
76434;BME280;65265;53.200;6.080;2024-01-30T13:51:00;102387.56;;;8.04;100.00
76434;BME280;65265;53.200;6.080;2024-01-30T13:55:51;102389.66;;;7.98;100.00
76434;BME280;65265;53.200;6.080;2024-01-30T14:00:43;102385.34;;;7.97;100.00
76434;BME280;65265;53.200;6.080;2024-01-30T14:05:36;102380.91;;;7.94;100.00
76434;BME280;65265;53.200;6.080;2024-01-30T14:10:28;102395.63;;;7.87;100.00
76434;BME280;65265;53.200;6.080;2024-01-30T14:15:21;102394.16;;;7.79;100.00
76434;BME280;65265;53.200;6.080;2024-01-30T14:20:14;102396.50;;;7.76;100.00
76434;BME280;65265;53.200;6.080;2024-01-30T14:25:09;102416.09;;;7.77;100.00
76434;BME280;65265;53.200;6.080;2024-01-30T14:30:01;102415.09;;;7.75;100.00
76434;BME280;65265;53.200;6.080;2024-01-30T14:34:53;102417.16;;;7.69;100.00
76434;BME280;65265;53.200;6.080;2024-01-30T14:39:46;102416.38;;;7.70;100.00
76434;BME280;65265;53.200;6.080;2024-01-30T14:44:40;102427.25;;;7.67;100.00
76434;BME280;65265;53.200;6.080;2024-01-30T14:49:33;102414.94;;;7.62;100.00
76434;BME280;65265;53.200;6.080;2024-01-30T14:54:25;102402.50;;;7.55;100.00
76434;BME280;65265;53.200;6.080;2024-01-30T14:59:17;102426.75;;;7.61;100.00
76434;BME280;65265;53.200;6.080;2024-01-30T15:04:09;102435.31;;;7.62;100.00
76434;BME280;65265;53.200;6.080;2024-01-30T15:09:01;102442.03;;;7.61;100.00
76434;BME280;65265;53.200;6.080;2024-01-30T15:13:53;102457.44;;;7.63;100.00
76434;BME280;65265;53.200;6.080;2024-01-30T15:18:44;102454.47;;;7.68;100.00
76434;BME280;65265;53.200;6.080;2024-01-30T15:23:39;102474.06;;;7.69;100.00
76434;BME280;65265;53.200;6.080;2024-01-30T15:28:35;102469.63;;;7.67;100.00
76434;BME280;65265;53.200;6.080;2024-01-30T15:33:28;102486.22;;;7.62;100.00
76434;BME280;65265;53.200;6.080;2024-01-30T15:38:20;102500.47;;;7.60;100.00
76434;BME280;65265;53.200;6.080;2024-01-30T15:43:14;102505.50;;;7.48;100.00
76434;BME280;65265;53.200;6.080;2024-01-30T15:48:06;102519.06;;;7.37;100.00
76434;BME280;65265;53.200;6.080;2024-01-30T15:52:57;102518.97;;;7.26;100.00
76434;BME280;65265;53.200;6.080;2024-01-30T15:57:50;102529.91;;;7.25;100.00
76434;BME280;65265;53.200;6.080;2024-01-30T16:02:43;102542.16;;;7.19;100.00
76434;BME280;65265;53.200;6.080;2024-01-30T16:07:35;102539.25;;;7.14;100.00
76434;BME280;65265;53.200;6.080;2024-01-30T16:12:26;102548.28;;;7.11;100.00
76434;BME280;65265;53.200;6.080;2024-01-30T16:17:18;102544.50;;;7.06;100.00
76434;BME280;65265;53.200;6.080;2024-01-30T16:22:11;102559.50;;;7.03;100.00
76434;BME280;65265;53.200;6.080;2024-01-30T16:27:02;102565.88;;;6.98;100.00
76434;BME280;65265;53.200;6.080;2024-01-30T16:31:54;102581.13;;;6.98;100.00
76434;BME280;65265;53.200;6.080;2024-01-30T16:36:47;102594.09;;;6.91;100.00
76434;BME280;65265;53.200;6.080;2024-01-30T16:41:41;102594.41;;;6.84;100.00
76434;BME280;65265;53.200;6.080;2024-01-30T16:46:33;102619.44;;;6.80;100.00
76434;BME280;65265;53.200;6.080;2024-01-30T16:51:26;102627.84;;;6.79;100.00
76434;BME280;65265;53.200;6.080;2024-01-30T16:56:18;102630.09;;;6.76;100.00
76434;BME280;65265;53.200;6.080;2024-01-30T17:01:11;102637.88;;;6.77;100.00
76434;BME280;65265;53.200;6.080;2024-01-30T17:06:03;102659.75;;;6.75;100.00
76434;BME280;65265;53.200;6.080;2024-01-30T17:10:58;102661.75;;;6.69;100.00
76434;BME280;65265;53.200;6.080;2024-01-30T17:15:49;102668.63;;;6.70;100.00
76434;BME280;65265;53.200;6.080;2024-01-30T17:20:43;102673.59;;;6.69;100.00
76434;BME280;65265;53.200;6.080;2024-01-30T17:25:34;102686.69;;;6.63;100.00
76434;BME280;65265;53.200;6.080;2024-01-30T17:30:26;102699.88;;;6.59;100.00
76434;BME280;65265;53.200;6.080;2024-01-30T17:35:18;102714.25;;;6.59;100.00
76434;BME280;65265;53.200;6.080;2024-01-30T17:40:12;102727.72;;;6.58;100.00
76434;BME280;65265;53.200;6.080;2024-01-30T17:45:04;102739.66;;;6.59;100.00
76434;BME280;65265;53.200;6.080;2024-01-30T17:49:57;102746.91;;;6.54;100.00
76434;BME280;65265;53.200;6.080;2024-01-30T17:54:48;102754.91;;;6.59;100.00
76434;BME280;65265;53.200;6.080;2024-01-30T17:59:42;102756.81;;;6.51;100.00
76434;BME280;65265;53.200;6.080;2024-01-30T18:04:37;102777.16;;;6.51;100.00
76434;BME280;65265;53.200;6.080;2024-01-30T18:09:29;102788.81;;;6.49;100.00
76434;BME280;65265;53.200;6.080;2024-01-30T18:14:21;102798.44;;;6.43;100.00
76434;BME280;65265;53.200;6.080;2024-01-30T18:19:14;102800.22;;;6.44;100.00
76434;BME280;65265;53.200;6.080;2024-01-30T18:24:05;102810.13;;;6.41;100.00
76434;BME280;65265;53.200;6.080;2024-01-30T18:28:57;102822.56;;;6.38;100.00
76434;BME280;65265;53.200;6.080;2024-01-30T18:33:49;102835.00;;;6.35;100.00
76434;BME280;65265;53.200;6.080;2024-01-30T18:38:44;102842.88;;;6.28;100.00
76434;BME280;65265;53.200;6.080;2024-01-30T18:43:35;102848.47;;;6.34;100.00
76434;BME280;65265;53.200;6.080;2024-01-30T18:48:27;102850.19;;;6.25;100.00
76434;BME280;65265;53.200;6.080;2024-01-30T18:53:18;102862.28;;;6.28;100.00
76434;BME280;65265;53.200;6.080;2024-01-30T18:58:13;102869.22;;;6.20;100.00
76434;BME280;65265;53.200;6.080;2024-01-30T19:03:04;102881.19;;;6.21;100.00
76434;BME280;65265;53.200;6.080;2024-01-30T19:07:56;102891.84;;;6.17;100.00
76434;BME280;65265;53.200;6.080;2024-01-30T19:12:48;102902.19;;;6.10;100.00
76434;BME280;65265;53.200;6.080;2024-01-30T19:17:41;102911.78;;;6.04;100.00
76434;BME280;65265;53.200;6.080;2024-01-30T19:22:33;102921.66;;;6.01;100.00
76434;BME280;65265;53.200;6.080;2024-01-30T19:27:25;102927.09;;;5.96;100.00
76434;BME280;65265;53.200;6.080;2024-01-30T19:32:16;102932.78;;;5.93;100.00
76434;BME280;65265;53.200;6.080;2024-01-30T19:37:09;102942.13;;;5.84;100.00
76434;BME280;65265;53.200;6.080;2024-01-30T19:42:01;102964.66;;;5.81;100.00
76434;BME280;65265;53.200;6.080;2024-01-30T19:46:53;102963.63;;;5.79;100.00
76434;BME280;65265;53.200;6.080;2024-01-30T19:51:44;102974.06;;;5.82;100.00
76434;BME280;65265;53.200;6.080;2024-01-30T19:56:37;102982.13;;;5.78;100.00
76434;BME280;65265;53.200;6.080;2024-01-30T20:01:28;102999.91;;;5.78;100.00
76434;BME280;65265;53.200;6.080;2024-01-30T20:06:20;103007.41;;;5.68;100.00
76434;BME280;65265;53.200;6.080;2024-01-30T20:11:12;103022.09;;;5.62;100.00
76434;BME280;65265;53.200;6.080;2024-01-30T20:16:06;103031.50;;;5.55;100.00
76434;BME280;65265;53.200;6.080;2024-01-30T20:20:57;103045.56;;;5.51;100.00
76434;BME280;65265;53.200;6.080;2024-01-30T20:25:49;103050.66;;;5.51;100.00
76434;BME280;65265;53.200;6.080;2024-01-30T20:30:40;103064.53;;;5.46;100.00
76434;BME280;65265;53.200;6.080;2024-01-30T20:35:33;103062.00;;;5.38;100.00
76434;BME280;65265;53.200;6.080;2024-01-30T20:40:25;103068.75;;;5.29;100.00
76434;BME280;65265;53.200;6.080;2024-01-30T20:45:16;103080.22;;;5.25;100.00
76434;BME280;65265;53.200;6.080;2024-01-30T20:50:08;103078.72;;;5.27;100.00
76434;BME280;65265;53.200;6.080;2024-01-30T20:55:02;103083.25;;;5.21;100.00
76434;BME280;65265;53.200;6.080;2024-01-30T20:59:53;103090.84;;;5.21;100.00
76434;BME280;65265;53.200;6.080;2024-01-30T21:04:45;103099.34;;;5.22;100.00
76434;BME280;65265;53.200;6.080;2024-01-30T21:09:36;103089.66;;;5.18;100.00
76434;BME280;65265;53.200;6.080;2024-01-30T21:14:29;103102.50;;;5.11;100.00
76434;BME280;65265;53.200;6.080;2024-01-30T21:19:21;103109.50;;;5.05;100.00
76434;BME280;65265;53.200;6.080;2024-01-30T21:24:12;103115.78;;;5.00;100.00
76434;BME280;65265;53.200;6.080;2024-01-30T21:29:04;103126.66;;;4.99;100.00
76434;BME280;65265;53.200;6.080;2024-01-30T21:33:57;103126.97;;;5.02;100.00
76434;BME280;65265;53.200;6.080;2024-01-30T21:38:49;103140.53;;;5.02;100.00
76434;BME280;65265;53.200;6.080;2024-01-30T21:43:41;103144.41;;;4.99;100.00
76434;BME280;65265;53.200;6.080;2024-01-30T21:48:33;103138.44;;;4.90;100.00
76434;BME280;65265;53.200;6.080;2024-01-30T21:53:26;103137.25;;;4.86;100.00
76434;BME280;65265;53.200;6.080;2024-01-30T21:58:18;103152.16;;;4.92;100.00
76434;BME280;65265;53.200;6.080;2024-01-30T22:03:09;103154.81;;;4.93;100.00
76434;BME280;65265;53.200;6.080;2024-01-30T22:08:01;103159.19;;;4.94;100.00
76434;BME280;65265;53.200;6.080;2024-01-30T22:12:54;103158.44;;;4.95;100.00
76434;BME280;65265;53.200;6.080;2024-01-30T22:17:45;103159.91;;;4.93;100.00
76434;BME280;65265;53.200;6.080;2024-01-30T22:22:37;103159.19;;;4.94;100.00
76434;BME280;65265;53.200;6.080;2024-01-30T22:27:28;103156.94;;;4.97;100.00
76434;BME280;65265;53.200;6.080;2024-01-30T22:32:21;103169.47;;;4.96;100.00
76434;BME280;65265;53.200;6.080;2024-01-30T22:37:13;103170.50;;;4.98;100.00
76434;BME280;65265;53.200;6.080;2024-01-30T22:42:04;103155.16;;;4.96;100.00
76434;BME280;65265;53.200;6.080;2024-01-30T22:46:55;103160.34;;;4.98;100.00
76434;BME280;65265;53.200;6.080;2024-01-30T22:51:48;103165.44;;;4.98;100.00
76434;BME280;65265;53.200;6.080;2024-01-30T22:56:40;103169.16;;;5.01;100.00
76434;BME280;65265;53.200;6.080;2024-01-30T23:01:32;103179.47;;;5.03;100.00
76434;BME280;65265;53.200;6.080;2024-01-30T23:06:23;103187.94;;;5.03;100.00
76434;BME280;65265;53.200;6.080;2024-01-30T23:11:16;103204.94;;;5.04;100.00
76434;BME280;65265;53.200;6.080;2024-01-30T23:16:07;103211.84;;;5.05;100.00
76434;BME280;65265;53.200;6.080;2024-01-30T23:20:59;103216.75;;;5.04;100.00
76434;BME280;65265;53.200;6.080;2024-01-30T23:25:50;103224.53;;;5.05;100.00
76434;BME280;65265;53.200;6.080;2024-01-30T23:30:44;103222.00;;;5.05;100.00
76434;BME280;65265;53.200;6.080;2024-01-30T23:35:35;103231.81;;;5.02;100.00
76434;BME280;65265;53.200;6.080;2024-01-30T23:40:27;103236.59;;;4.99;100.00
76434;BME280;65265;53.200;6.080;2024-01-30T23:45:18;103250.31;;;5.01;100.00
76434;BME280;65265;53.200;6.080;2024-01-30T23:50:12;103258.94;;;4.95;100.00
76434;BME280;65265;53.200;6.080;2024-01-30T23:55:04;103267.28;;;4.94;100.00
76434;BME280;65265;53.200;6.080;2024-01-30T23:59:55;103276.38;;;4.92;100.00
